createdAt,value
2022-10-31T00:00:50.715Z,100951.25
2022-10-31T00:03:19.417Z,100968.31
2022-10-31T00:05:49.054Z,100972.00
2022-10-31T00:08:17.620Z,100970.53
2022-10-31T00:10:48.069Z,100968.63
2022-10-31T00:13:16.516Z,100969.97
2022-10-31T00:15:44.597Z,100968.22
2022-10-31T00:18:13.044Z,100962.13
2022-10-31T00:20:41.180Z,100964.75
2022-10-31T00:23:09.571Z,100959.00
2022-10-31T00:25:39.594Z,100959.75
2022-10-31T00:28:11.647Z,100961.31
2022-10-31T00:30:39.634Z,100962.25
2022-10-31T00:33:07.573Z,100953.13
2022-10-31T00:35:35.536Z,100960.25
2022-10-31T00:38:03.492Z,100961.56
2022-10-31T00:40:31.473Z,100956.53
2022-10-31T00:42:59.651Z,100975.16
2022-10-31T00:45:29.214Z,100972.00
2022-10-31T00:47:57.516Z,100984.44
2022-10-31T00:50:25.919Z,100975.47
2022-10-31T00:52:53.859Z,100980.16
2022-10-31T00:55:21.808Z,100979.75
2022-10-31T00:57:49.982Z,100971.38
2022-10-31T01:00:18.670Z,100976.19
2022-10-31T01:02:48.131Z,100967.63
2022-10-31T01:05:16.350Z,100970.88
2022-10-31T01:07:44.578Z,100968.25
2022-10-31T01:10:13.026Z,100976.59
2022-10-31T01:12:42.312Z,100987.22
2022-10-31T01:15:12.632Z,100978.44
2022-10-31T01:17:40.684Z,100980.13
2022-10-31T01:20:12.425Z,100974.16
2022-10-31T01:22:40.398Z,100966.75
2022-10-31T01:25:10.531Z,100954.63
2022-10-31T01:27:38.478Z,100946.91
2022-10-31T01:30:08.004Z,100956.53
2022-10-31T01:32:36.094Z,100951.41
2022-10-31T01:35:04.380Z,100957.78
2022-10-31T01:37:34.310Z,100962.78
2022-10-31T01:40:02.238Z,100956.53
2022-10-31T01:42:30.154Z,100972.31
2022-10-31T01:45:02.639Z,100982.56
2022-10-31T01:47:39.988Z,100980.19
2022-10-31T01:50:14.928Z,100979.44
2022-10-31T01:52:46.891Z,100993.44
2022-10-31T01:55:19.760Z,100990.22
2022-10-31T01:57:50.717Z,100986.94
2022-10-31T02:00:21.042Z,100999.69
2022-10-31T02:02:51.527Z,101010.63
2022-10-31T02:05:23.569Z,101012.72
2022-10-31T02:07:59.586Z,101017.94
2022-10-31T02:10:28.747Z,101018.56
2022-10-31T02:13:00.717Z,101004.91
2022-10-31T02:15:30.582Z,101012.03
2022-10-31T02:17:59.351Z,101011.53
2022-10-31T02:20:34.249Z,101015.25
2022-10-31T02:23:39.639Z,101021.19
2022-10-31T02:26:46.504Z,101012.19
2022-10-31T02:29:38.102Z,101015.69
2022-10-31T02:32:13.232Z,101024.44
2022-10-31T02:34:49.303Z,101017.56
2022-10-31T02:37:25.327Z,101021.13
2022-10-31T02:40:02.308Z,101030.31
2022-10-31T02:42:37.105Z,101026.31
2022-10-31T02:45:11.563Z,101027.34
2022-10-31T02:47:41.202Z,101030.41
2022-10-31T02:50:13.131Z,101032.81
2022-10-31T02:52:41.063Z,101035.34
2022-10-31T02:55:14.160Z,101029.00
2022-10-31T02:57:44.020Z,101031.53
2022-10-31T03:00:12.859Z,101030.34
2022-10-31T03:03:02.735Z,101033.94
2022-10-31T03:05:53.104Z,101044.25
2022-10-31T03:08:25.865Z,101044.94
2022-10-31T03:10:58.136Z,101043.97
2022-10-31T03:13:36.591Z,101049.31
2022-10-31T03:16:11.527Z,101053.19
2022-10-31T03:18:45.167Z,101059.31
2022-10-31T03:21:15.724Z,101066.81
2022-10-31T03:23:47.423Z,101063.66
2022-10-31T03:26:17.808Z,101071.19
2022-10-31T03:28:49.479Z,101071.59
2022-10-31T03:31:20.933Z,101083.72
2022-10-31T03:33:53.301Z,101080.72
2022-10-31T03:36:23.135Z,101077.56
2022-10-31T03:38:52.105Z,101088.66
2022-10-31T03:41:24.846Z,101066.94
2022-10-31T03:44:00.185Z,101093.94
2022-10-31T03:46:29.114Z,101097.56
2022-10-31T03:48:59.423Z,101087.75
2022-10-31T03:51:33.124Z,101101.00
2022-10-31T03:54:06.405Z,101095.63
2022-10-31T03:56:38.524Z,101104.53
2022-10-31T03:59:09.921Z,101098.31
2022-10-31T04:01:47.465Z,101091.34
2022-10-31T04:04:17.320Z,101095.94
2022-10-31T04:06:47.545Z,101094.94
2022-10-31T04:09:16.990Z,101103.00
2022-10-31T04:11:48.177Z,101102.00
2022-10-31T04:14:16.281Z,101110.25
2022-10-31T04:16:46.048Z,101100.84
2022-10-31T04:19:14.730Z,101108.28
2022-10-31T04:21:44.435Z,101103.22
2022-10-31T04:24:12.784Z,101108.47
2022-10-31T04:26:40.736Z,101106.56
2022-10-31T04:29:08.733Z,101114.28
2022-10-31T04:31:36.691Z,101114.63
2022-10-31T04:34:04.656Z,101117.16
2022-10-31T04:36:32.790Z,101119.34
2022-10-31T04:39:02.150Z,101114.59
2022-10-31T04:41:30.228Z,101117.38
2022-10-31T04:43:58.240Z,101111.91
2022-10-31T04:46:26.229Z,101114.88
2022-10-31T04:48:54.157Z,101124.78
2022-10-31T04:51:22.089Z,101120.50
2022-10-31T04:53:50.066Z,101114.94
2022-10-31T04:56:19.351Z,101128.06
2022-10-31T04:58:47.297Z,101134.47
2022-10-31T05:01:15.773Z,101141.78
2022-10-31T05:03:43.816Z,101137.50
2022-10-31T05:06:11.763Z,101140.72
2022-10-31T05:08:39.719Z,101125.84
2022-10-31T05:11:07.638Z,101133.69
2022-10-31T05:13:36.921Z,101131.56
2022-10-31T05:16:04.962Z,101134.47
2022-10-31T05:18:33.001Z,101136.69
2022-10-31T05:21:00.949Z,101124.84
2022-10-31T05:23:28.951Z,101132.94
2022-10-31T05:25:56.975Z,101133.38
2022-10-31T05:28:25.304Z,101136.47
2022-10-31T05:30:54.633Z,101132.72
2022-10-31T05:33:22.599Z,101147.16
2022-10-31T05:35:50.555Z,101137.44
2022-10-31T05:38:18.464Z,101146.25
2022-10-31T05:40:46.403Z,101149.88
2022-10-31T05:43:15.244Z,101155.75
2022-10-31T05:45:43.164Z,101161.94
2022-10-31T05:48:12.465Z,101154.56
2022-10-31T05:50:40.409Z,101167.63
2022-10-31T05:53:08.324Z,101165.91
2022-10-31T05:55:36.652Z,101162.50
2022-10-31T05:58:04.765Z,101159.66
2022-10-31T06:00:34.070Z,101164.53
2022-10-31T06:03:03.258Z,101168.41
2022-10-31T06:05:32.939Z,101171.56
2022-10-31T06:08:01.564Z,101173.22
2022-10-31T06:10:30.324Z,101168.09
2022-10-31T06:12:59.375Z,101173.34
2022-10-31T06:15:27.322Z,101177.47
2022-10-31T06:18:03.451Z,101181.09
2022-10-31T06:20:33.663Z,101177.19
2022-10-31T06:23:01.892Z,101189.13
2022-10-31T06:25:30.550Z,101193.56
2022-10-31T06:27:58.592Z,101193.91
2022-10-31T06:30:26.766Z,101190.16
2022-10-31T06:32:54.836Z,101195.34
2022-10-31T06:35:23.120Z,101198.97
2022-10-31T06:37:56.525Z,101210.69
2022-10-31T06:40:24.764Z,101197.47
2022-10-31T06:42:58.784Z,101203.34
2022-10-31T06:45:26.548Z,101213.91
2022-10-31T06:48:15.928Z,101204.03
2022-10-31T06:50:42.561Z,101211.81
2022-10-31T06:53:12.037Z,101189.78
2022-10-31T06:55:40.288Z,101203.09
2022-10-31T06:58:08.737Z,101204.50
2022-10-31T07:00:37.026Z,101192.06
2022-10-31T07:03:07.491Z,101204.81
2022-10-31T07:05:35.959Z,101212.31
2022-10-31T07:08:07.733Z,101204.66
2022-10-31T07:10:40.615Z,101211.19
2022-10-31T07:13:12.645Z,101208.66
2022-10-31T07:15:42.898Z,101212.59
2022-10-31T07:18:12.485Z,101210.34
2022-10-31T07:20:40.489Z,101205.13
2022-10-31T07:23:08.911Z,101206.84
2022-10-31T07:25:38.342Z,101214.91
2022-10-31T07:28:06.602Z,101210.47
2022-10-31T07:30:34.560Z,101212.50
2022-10-31T07:33:02.875Z,101207.78
2022-10-31T07:35:31.827Z,101204.22
2022-10-31T07:38:08.309Z,101209.00
2022-10-31T07:40:36.273Z,101203.13
2022-10-31T07:43:10.020Z,101214.56
2022-10-31T07:45:41.137Z,101215.25
2022-10-31T07:48:09.088Z,101200.53
2022-10-31T07:50:37.209Z,101229.28
2022-10-31T07:53:08.036Z,101228.50
2022-10-31T07:55:36.877Z,101229.13
2022-10-31T07:58:08.457Z,101208.88
2022-10-31T08:00:38.012Z,101230.41
2022-10-31T08:03:07.766Z,101213.09
2022-10-31T08:05:36.848Z,101227.25
2022-10-31T08:08:06.219Z,101220.22
2022-10-31T08:10:35.404Z,101227.84
2022-10-31T08:13:05.353Z,101224.53
2022-10-31T08:15:39.136Z,101232.09
2022-10-31T08:18:07.260Z,101223.91
2022-10-31T08:20:35.493Z,101228.47
2022-10-31T08:23:05.280Z,101230.75
2022-10-31T08:25:38.415Z,101212.31
2022-10-31T08:28:07.460Z,101217.53
2022-10-31T08:30:38.663Z,101216.41
2022-10-31T08:33:08.605Z,101218.63
2022-10-31T08:35:36.742Z,101224.47
2022-10-31T08:38:05.538Z,101218.63
2022-10-31T08:40:36.199Z,101226.16
2022-10-31T08:43:05.858Z,101223.38
2022-10-31T08:45:36.435Z,101225.31
2022-10-31T08:48:06.832Z,101223.06
2022-10-31T08:50:37.064Z,101231.97
2022-10-31T08:53:06.534Z,101218.78
2022-10-31T08:55:36.786Z,101217.50
2022-10-31T08:58:06.105Z,101229.88
2022-10-31T09:00:34.728Z,101226.38
2022-10-31T09:03:06.507Z,101225.34
2022-10-31T09:05:35.755Z,101231.88
2022-10-31T09:08:06.007Z,101231.22
2022-10-31T09:10:36.038Z,101229.97
2022-10-31T09:13:07.419Z,101217.31
2022-10-31T09:15:37.045Z,101228.38
2022-10-31T09:18:06.794Z,101228.09
2022-10-31T09:20:36.830Z,101230.31
2022-10-31T09:23:07.528Z,101224.03
2022-10-31T09:25:36.831Z,101220.13
2022-10-31T09:28:06.671Z,101226.50
2022-10-31T09:30:36.884Z,101214.84
2022-10-31T09:33:07.956Z,101224.03
2022-10-31T09:35:36.632Z,101211.31
2022-10-31T09:38:06.340Z,101210.63
2022-10-31T09:40:37.435Z,101189.16
2022-10-31T09:43:16.556Z,101201.06
2022-10-31T09:45:53.249Z,101205.88
2022-10-31T09:48:47.093Z,101199.75
2022-10-31T09:51:19.156Z,101211.50
2022-10-31T09:53:51.504Z,101205.47
2022-10-31T09:56:23.001Z,101200.03
2022-10-31T09:58:56.415Z,101203.53
2022-10-31T10:01:35.318Z,101197.78
2022-10-31T10:04:20.682Z,101199.56
2022-10-31T10:06:51.949Z,101202.47
2022-10-31T10:12:04.670Z,101190.38
2022-10-31T10:14:47.788Z,101172.16
2022-10-31T10:17:28.370Z,101178.50
2022-10-31T10:20:29.124Z,101181.69
2022-10-31T10:23:06.202Z,101177.91
2022-10-31T10:25:40.735Z,101186.22
2022-10-31T10:28:23.925Z,101179.72
2022-10-31T10:30:58.942Z,101185.19
2022-10-31T10:33:34.060Z,101178.97
2022-10-31T10:36:07.984Z,101188.50
2022-10-31T10:38:41.731Z,101182.53
2022-10-31T10:41:18.648Z,101172.53
2022-10-31T10:46:39.359Z,101173.16
2022-10-31T10:49:17.820Z,101169.28
2022-10-31T10:52:13.225Z,101163.03
2022-10-31T10:55:00.353Z,101168.34
2022-10-31T10:57:40.629Z,101165.59
2022-10-31T11:00:20.370Z,101164.94
2022-10-31T11:02:49.179Z,101160.97
2022-10-31T11:05:25.834Z,101157.34
2022-10-31T11:07:55.430Z,101164.03
2022-10-31T11:10:23.703Z,101162.13
2022-10-31T11:13:06.079Z,101152.81
2022-10-31T11:15:39.023Z,101150.84
2022-10-31T11:18:07.709Z,101147.53
2022-10-31T11:20:37.698Z,101154.13
2022-10-31T11:23:22.535Z,101151.22
2022-10-31T11:25:52.801Z,101143.06
2022-10-31T11:28:20.926Z,101133.31
2022-10-31T11:30:51.272Z,101138.16
2022-10-31T11:33:24.122Z,101131.03
2022-10-31T11:35:55.253Z,101135.94
2022-10-31T11:38:35.764Z,101125.44
2022-10-31T11:41:13.136Z,101127.81
2022-10-31T11:43:47.653Z,101133.22
2022-10-31T11:46:23.284Z,101130.56
2022-10-31T11:48:54.742Z,101126.25
2022-10-31T11:51:24.513Z,101114.59
2022-10-31T11:53:59.924Z,101122.06
2022-10-31T11:56:40.390Z,101112.56
2022-10-31T11:59:19.443Z,101114.91
2022-10-31T12:01:50.917Z,101114.28
2022-10-31T12:04:19.722Z,101113.16
2022-10-31T12:06:50.123Z,101115.13
2022-10-31T12:09:25.299Z,101114.59
2022-10-31T12:12:13.723Z,101112.03
2022-10-31T12:14:53.083Z,101111.34
2022-10-31T12:17:25.803Z,101111.41
2022-10-31T12:20:05.320Z,101117.31
2022-10-31T12:22:44.034Z,101118.63
2022-10-31T12:25:30.644Z,101118.22
2022-10-31T12:28:07.467Z,101100.47
2022-10-31T12:30:49.560Z,101104.72
2022-10-31T12:33:30.445Z,101094.72
2022-10-31T12:36:15.332Z,101100.22
2022-10-31T12:39:00.283Z,101102.78
2022-10-31T12:41:44.119Z,101105.38
2022-10-31T12:44:25.002Z,101108.09
2022-10-31T12:47:08.197Z,101106.44
2022-10-31T12:49:46.183Z,101119.72
2022-10-31T12:52:32.528Z,101113.75
2022-10-31T12:55:16.548Z,101105.28
2022-10-31T12:57:47.370Z,101108.63
2022-10-31T13:00:18.103Z,101117.81
2022-10-31T13:02:54.258Z,101118.53
2022-10-31T13:05:31.373Z,101120.28
2022-10-31T13:08:03.756Z,101109.06
2022-10-31T13:10:36.923Z,101123.13
2022-10-31T13:13:13.112Z,101121.00
2022-10-31T13:15:50.189Z,101110.66
2022-10-31T13:18:28.953Z,101116.34
2022-10-31T13:20:59.381Z,101100.59
2022-10-31T13:26:26.398Z,101122.94
2022-10-31T13:29:04.366Z,101117.66
2022-10-31T13:31:32.475Z,101121.31
2022-10-31T13:34:06.216Z,101125.25
2022-10-31T13:36:38.585Z,101123.97
2022-10-31T13:39:20.840Z,101094.59
2022-10-31T13:41:55.945Z,101114.72
2022-10-31T13:44:27.044Z,101123.06
2022-10-31T13:46:56.955Z,101128.06
2022-10-31T13:49:39.547Z,101108.66
2022-10-31T13:52:15.763Z,101113.81
2022-10-31T13:54:45.855Z,101118.13
2022-10-31T13:57:21.748Z,101116.72
2022-10-31T13:59:53.841Z,101129.22
2022-10-31T14:02:28.888Z,101123.69
2022-10-31T14:05:00.442Z,101119.13
2022-10-31T14:07:30.974Z,101117.72
2022-10-31T14:10:03.455Z,101120.47
2022-10-31T14:12:35.974Z,101123.00
2022-10-31T14:15:15.941Z,101116.50
2022-10-31T14:17:50.028Z,101110.38
2022-10-31T14:20:34.916Z,101117.47
2022-10-31T14:23:27.921Z,101123.72
2022-10-31T14:25:56.116Z,101119.97
2022-10-31T14:28:33.780Z,101132.44
2022-10-31T14:31:04.154Z,101127.28
2022-10-31T14:33:33.254Z,101113.13
2022-10-31T14:36:06.452Z,101121.16
2022-10-31T14:38:49.810Z,101125.97
2022-10-31T14:41:51.516Z,101119.75
2022-10-31T14:44:54.762Z,101119.88
2022-10-31T14:47:36.434Z,101122.16
2022-10-31T14:50:23.916Z,101119.66
2022-10-31T14:52:55.975Z,101122.16
2022-10-31T14:55:26.291Z,101115.75
2022-10-31T14:57:57.980Z,101121.13
2022-10-31T15:00:26.896Z,101109.88
2022-10-31T15:03:07.765Z,101125.81
2022-10-31T15:05:43.520Z,101110.94
2022-10-31T15:08:16.792Z,101114.66
2022-10-31T15:10:47.922Z,101113.94
2022-10-31T15:13:21.172Z,101124.72
2022-10-31T15:15:52.485Z,101131.34
2022-10-31T15:18:25.220Z,101120.50
2022-10-31T15:20:54.574Z,101125.88
2022-10-31T15:23:26.019Z,101126.13
2022-10-31T15:26:01.310Z,101133.09
2022-10-31T15:28:29.888Z,101132.66
2022-10-31T15:30:59.793Z,101141.06
2022-10-31T15:33:37.535Z,101140.72
2022-10-31T15:36:07.757Z,101132.06
2022-10-31T15:38:41.480Z,101140.56
2022-10-31T15:41:35.831Z,101134.47
2022-10-31T15:44:09.363Z,101142.53
2022-10-31T15:46:37.372Z,101144.06
2022-10-31T15:49:13.344Z,101137.56
2022-10-31T15:51:41.580Z,101147.69
2022-10-31T15:54:15.427Z,101152.94
2022-10-31T15:56:45.562Z,101158.47
2022-10-31T15:59:21.993Z,101152.84
2022-10-31T16:02:03.139Z,101159.44
2022-10-31T16:04:32.792Z,101153.03
2022-10-31T16:07:05.696Z,101145.00
2022-10-31T16:09:33.828Z,101152.53
2022-10-31T16:12:01.780Z,101161.59
2022-10-31T16:14:33.298Z,101164.31
2022-10-31T16:17:03.593Z,101173.50
2022-10-31T16:19:36.096Z,101173.53
2022-10-31T16:22:08.997Z,101177.72
2022-10-31T16:24:52.905Z,101184.75
2022-10-31T16:27:26.591Z,101189.84
2022-10-31T16:29:54.925Z,101178.16
2022-10-31T16:32:31.934Z,101190.66
2022-10-31T16:35:02.891Z,101192.44
2022-10-31T16:37:30.968Z,101189.09
2022-10-31T16:39:58.892Z,101175.13
2022-10-31T16:42:26.953Z,101193.59
2022-10-31T16:44:54.898Z,101188.34
2022-10-31T16:47:26.001Z,101186.75
2022-10-31T16:50:01.180Z,101195.59
2022-10-31T16:52:38.129Z,101193.41
2022-10-31T16:55:14.163Z,101188.19
2022-10-31T16:57:45.741Z,101202.59
2022-10-31T17:00:18.990Z,101194.56
2022-10-31T17:02:49.939Z,101204.34
2022-10-31T17:05:19.306Z,101206.00
2022-10-31T17:07:49.433Z,101198.34
2022-10-31T17:10:18.728Z,101204.44
2022-10-31T17:12:49.959Z,101204.06
2022-10-31T17:15:21.333Z,101209.25
2022-10-31T17:17:49.264Z,101202.13
2022-10-31T17:20:23.047Z,101207.13
2022-10-31T17:22:52.608Z,101208.06
2022-10-31T17:25:22.797Z,101215.50
2022-10-31T17:27:50.800Z,101215.50
2022-10-31T17:30:19.960Z,101212.88
2022-10-31T17:32:49.276Z,101218.06
2022-10-31T17:35:18.655Z,101198.19
2022-10-31T17:37:47.820Z,101212.25
2022-10-31T17:40:18.968Z,101212.84
2022-10-31T17:42:51.152Z,101213.69
2022-10-31T17:45:19.790Z,101218.09
2022-10-31T17:47:49.619Z,101212.25
2022-10-31T17:50:18.114Z,101221.66
2022-10-31T17:52:46.133Z,101216.41
2022-10-31T17:55:14.638Z,101223.25
2022-10-31T17:57:45.030Z,101219.81
2022-10-31T18:00:15.408Z,101219.00
2022-10-31T18:02:43.856Z,101206.44
2022-10-31T18:05:12.492Z,101227.13
2022-10-31T18:07:40.442Z,101220.66
2022-10-31T18:10:09.619Z,101234.19
2022-10-31T18:12:38.150Z,101231.56
2022-10-31T18:15:08.438Z,101225.81
2022-10-31T18:17:39.442Z,101226.97
2022-10-31T18:20:11.564Z,101232.88
2022-10-31T18:22:39.803Z,101232.44
2022-10-31T18:25:09.606Z,101233.72
2022-10-31T18:27:37.833Z,101228.47
2022-10-31T18:30:08.789Z,101232.44
2022-10-31T18:32:36.767Z,101229.09
2022-10-31T18:35:05.240Z,101232.03
2022-10-31T18:37:33.172Z,101239.25
2022-10-31T18:40:01.245Z,101244.81
2022-10-31T18:42:29.433Z,101246.50
2022-10-31T18:45:00.242Z,101245.97
2022-10-31T18:47:36.318Z,101221.25
2022-10-31T18:50:04.326Z,101247.22
2022-10-31T18:52:33.072Z,101246.78
2022-10-31T18:55:00.999Z,101252.72
2022-10-31T18:57:29.958Z,101255.25
2022-10-31T18:59:57.890Z,101250.72
2022-10-31T19:02:25.863Z,101253.91
2022-10-31T19:04:55.193Z,101256.34
2022-10-31T19:07:23.119Z,101256.63
2022-10-31T19:09:51.104Z,101259.00
2022-10-31T19:12:19.021Z,101262.31
2022-10-31T19:14:46.959Z,101264.66
2022-10-31T19:17:14.887Z,101262.13
2022-10-31T19:19:42.885Z,101262.19
2022-10-31T19:22:12.192Z,101264.19
2022-10-31T19:24:40.091Z,101261.41
2022-10-31T19:27:10.448Z,101261.94
2022-10-31T19:29:38.370Z,101265.69
2022-10-31T19:32:06.883Z,101268.09
2022-10-31T19:34:35.146Z,101254.72
2022-10-31T19:37:03.129Z,101268.59
2022-10-31T19:39:32.468Z,101272.72
2022-10-31T19:42:00.412Z,101265.88
2022-10-31T19:44:30.168Z,101264.13
2022-10-31T19:46:58.391Z,101262.69
2022-10-31T19:49:27.632Z,101271.00
2022-10-31T19:51:55.628Z,101274.59
2022-10-31T19:54:23.937Z,101275.16
2022-10-31T19:56:53.330Z,101272.81
2022-10-31T19:59:21.260Z,101282.16
2022-10-31T20:01:49.328Z,101277.88
2022-10-31T20:04:17.396Z,101280.88
2022-10-31T20:06:45.772Z,101283.78
2022-10-31T20:09:15.258Z,101282.75
2022-10-31T20:11:45.190Z,101285.00
2022-10-31T20:14:17.228Z,101253.59
2022-10-31T20:16:46.037Z,101287.63
2022-10-31T20:19:14.046Z,101282.75
2022-10-31T20:21:42.883Z,101283.72
2022-10-31T20:24:12.123Z,101286.09
2022-10-31T20:26:42.333Z,101290.66
2022-10-31T20:29:16.232Z,101292.84
2022-10-31T20:31:45.535Z,101290.97
2022-10-31T20:34:14.299Z,101293.78
2022-10-31T20:36:42.265Z,101292.09
2022-10-31T20:39:11.029Z,101288.38
2022-10-31T20:41:39.874Z,101297.78
2022-10-31T20:44:08.113Z,101299.66
2022-10-31T20:46:37.504Z,101299.16
2022-10-31T20:49:05.428Z,101302.06
2022-10-31T20:51:33.431Z,101292.00
2022-10-31T20:54:01.980Z,101291.66
2022-10-31T20:56:30.543Z,101299.25
2022-10-31T20:58:58.925Z,101289.06
2022-10-31T21:01:29.066Z,101295.13
2022-10-31T21:03:59.644Z,101295.81
2022-10-31T21:06:28.283Z,101297.00
2022-10-31T21:08:57.420Z,101289.66
2022-10-31T21:11:26.823Z,101296.00
2022-10-31T21:13:55.208Z,101299.16
2022-10-31T21:16:24.680Z,101300.47
2022-10-31T21:18:54.016Z,101290.41
2022-10-31T21:21:29.023Z,101298.00
2022-10-31T21:24:01.976Z,101302.31
2022-10-31T21:26:33.501Z,101306.91
2022-10-31T21:29:01.945Z,101297.66
2022-10-31T21:31:30.176Z,101296.38
2022-10-31T21:33:58.460Z,101293.63
2022-10-31T21:36:27.937Z,101292.16
2022-10-31T21:38:56.904Z,101294.13
2022-10-31T21:41:26.488Z,101294.78
2022-10-31T21:43:55.410Z,101296.63
2022-10-31T21:46:25.052Z,101296.34
2022-10-31T21:48:54.078Z,101295.03
2022-10-31T21:51:24.176Z,101299.34
2022-10-31T21:54:11.109Z,101287.78
2022-10-31T21:56:39.655Z,101301.09
2022-10-31T21:59:07.913Z,101301.38
2022-10-31T22:01:37.026Z,101304.03
2022-10-31T22:04:05.744Z,101307.66
2022-10-31T22:06:34.035Z,101304.16
2022-10-31T22:09:07.415Z,101290.97
2022-10-31T22:11:36.275Z,101306.44
2022-10-31T22:14:05.159Z,101313.91
2022-10-31T22:16:36.435Z,101316.50
2022-10-31T22:19:06.540Z,101318.91
2022-10-31T22:21:38.738Z,101314.44
2022-10-31T22:24:09.261Z,101314.25
2022-10-31T22:26:38.035Z,101313.59
2022-10-31T22:29:11.007Z,101323.41
2022-10-31T22:31:40.911Z,101322.13
2022-10-31T22:34:09.314Z,101324.63
2022-10-31T22:36:37.853Z,101328.44
2022-10-31T22:39:08.039Z,101325.19
2022-10-31T22:41:37.304Z,101327.97
2022-10-31T22:44:06.355Z,101321.06
2022-10-31T22:46:36.050Z,101328.91
2022-10-31T22:49:06.228Z,101331.38
2022-10-31T22:51:36.202Z,101332.53
2022-10-31T22:54:04.978Z,101341.47
2022-10-31T22:56:35.680Z,101339.38
2022-10-31T22:59:04.250Z,101338.38
2022-10-31T23:01:34.803Z,101337.84
2022-10-31T23:04:03.316Z,101344.94
2022-10-31T23:06:33.557Z,101342.50
2022-10-31T23:09:03.487Z,101346.13
2022-10-31T23:11:35.713Z,101342.81
2022-10-31T23:14:16.256Z,101332.88
2022-10-31T23:16:47.574Z,101347.75
2022-10-31T23:19:18.634Z,101338.22
2022-10-31T23:22:00.313Z,101338.97
2022-10-31T23:24:31.766Z,101339.53
2022-10-31T23:27:10.833Z,101346.16
2022-10-31T23:29:43.354Z,101334.44
2022-10-31T23:32:14.888Z,101340.41
2022-10-31T23:34:43.479Z,101338.13
2022-10-31T23:37:11.961Z,101344.78
2022-10-31T23:39:40.030Z,101348.41
2022-10-31T23:42:10.697Z,101339.34
2022-10-31T23:44:39.007Z,101347.41
2022-10-31T23:47:07.440Z,101343.22
2022-10-31T23:49:35.729Z,101352.91
2022-10-31T23:52:04.975Z,101348.28
2022-10-31T23:54:33.809Z,101351.97
2022-10-31T23:57:02.080Z,101356.69
2022-10-31T23:59:31.945Z,101352.81
